createdAt,value
2018-12-22T00:02:27.020Z,99657.64
2018-12-22T00:04:54.523Z,99651.13
2018-12-22T00:07:22.049Z,99651.73
2018-12-22T00:09:49.568Z,99654.73
2018-12-22T00:12:17.231Z,99649.67
2018-12-22T00:14:44.736Z,99648.80
2018-12-22T00:17:12.231Z,99653.66
2018-12-22T00:19:39.791Z,99645.81
2018-12-22T00:22:07.292Z,99649.26
2018-12-22T00:24:34.839Z,99651.28
2018-12-22T00:27:02.352Z,99648.00
2018-12-22T00:29:29.879Z,99648.79
2018-12-22T00:31:58.107Z,99649.40
2018-12-22T00:34:25.627Z,99654.67
2018-12-22T00:36:53.163Z,99659.58
2018-12-22T00:39:21.164Z,99656.01
2018-12-22T00:41:48.667Z,99653.86
2018-12-22T00:44:16.195Z,99653.14
2018-12-22T00:46:43.795Z,99650.59
2018-12-22T00:49:11.424Z,99650.13
2018-12-22T00:51:38.923Z,99661.23
2018-12-22T00:54:06.415Z,99657.09
2018-12-22T00:56:33.940Z,99652.56
2018-12-22T00:59:01.451Z,99655.66
2018-12-22T01:01:29.292Z,99656.20
2018-12-22T01:03:56.792Z,99663.30
2018-12-22T01:06:24.296Z,99658.14
2018-12-22T01:08:51.819Z,99660.77
2018-12-22T01:11:19.427Z,99662.86
2018-12-22T01:13:46.958Z,99670.27
2018-12-22T01:16:14.475Z,99672.07
2018-12-22T01:18:41.985Z,99668.61
2018-12-22T01:21:09.516Z,99672.72
2018-12-22T01:23:37.008Z,99673.52
2018-12-22T01:26:04.691Z,99675.60
2018-12-22T01:28:39.353Z,99683.52
2018-12-22T01:31:01.742Z,99678.98
2018-12-22T01:33:29.273Z,99684.71
2018-12-22T01:35:56.797Z,99684.06
2018-12-22T01:38:24.435Z,99681.18
2018-12-22T01:40:51.928Z,99677.66
2018-12-22T01:43:19.443Z,99687.66
2018-12-22T01:45:46.971Z,99687.25
2018-12-22T01:48:14.464Z,99687.63
2018-12-22T01:50:42.128Z,99674.30
2018-12-22T01:53:09.623Z,99678.00
2018-12-22T01:55:37.155Z,99673.73
2018-12-22T01:58:04.679Z,99671.20
2018-12-22T02:00:32.291Z,99678.66
2018-12-22T02:02:59.861Z,99675.53
2018-12-22T02:05:27.355Z,99681.83
2018-12-22T02:07:54.864Z,99677.33
2018-12-22T02:10:22.387Z,99672.72
2018-12-22T02:12:49.888Z,99671.78
2018-12-22T02:15:17.415Z,99670.30
2018-12-22T02:17:44.924Z,99678.08
2018-12-22T02:20:12.460Z,99678.70
2018-12-22T02:22:39.987Z,99674.55
2018-12-22T02:25:07.488Z,99676.27
2018-12-22T02:27:35.021Z,99676.27
2018-12-22T02:30:02.527Z,99681.67
2018-12-22T02:32:30.059Z,99676.96
2018-12-22T02:34:57.609Z,99676.95
2018-12-22T02:37:25.135Z,99682.94
2018-12-22T02:39:52.633Z,99689.92
2018-12-22T02:42:20.164Z,99688.80
2018-12-22T02:44:47.663Z,99689.05
2018-12-22T02:47:15.159Z,99689.19
2018-12-22T02:49:42.783Z,99681.34
2018-12-22T02:52:10.300Z,99687.40
2018-12-22T02:54:37.987Z,99686.75
2018-12-22T02:57:05.483Z,99692.88
2018-12-22T02:59:32.983Z,99686.38
2018-12-22T03:02:00.524Z,99677.12
2018-12-22T03:04:28.029Z,99676.64
2018-12-22T03:06:55.569Z,99682.22
2018-12-22T03:09:23.065Z,99679.22
2018-12-22T03:11:50.559Z,99670.38
2018-12-22T03:14:18.093Z,99671.39
2018-12-22T03:16:45.620Z,99677.66
2018-12-22T03:19:13.185Z,99680.39
2018-12-22T03:21:40.683Z,99672.58
2018-12-22T03:24:08.180Z,99672.25
2018-12-22T03:26:35.733Z,99667.33
2018-12-22T03:29:03.393Z,99669.84
2018-12-22T03:31:30.941Z,99664.98
2018-12-22T03:33:58.444Z,99667.58
2018-12-22T03:36:25.943Z,99666.38
2018-12-22T03:38:53.470Z,99660.02
2018-12-22T03:41:20.979Z,99666.60
2018-12-22T03:43:48.511Z,99674.13
2018-12-22T03:46:16.022Z,99662.61
2018-12-22T03:48:43.535Z,99655.80
2018-12-22T03:51:11.061Z,99649.28
2018-12-22T03:53:38.561Z,99646.09
2018-12-22T03:56:06.088Z,99645.69
2018-12-22T03:58:33.586Z,99632.12
2018-12-22T04:01:01.173Z,99637.09
2018-12-22T04:03:28.679Z,99638.49
2018-12-22T04:05:56.175Z,99640.89
2018-12-22T04:08:23.728Z,99638.56
2018-12-22T04:10:51.325Z,99650.55
2018-12-22T04:13:18.851Z,99668.52
2018-12-22T04:15:46.349Z,99662.06
2018-12-22T04:18:13.895Z,99653.39
2018-12-22T04:20:41.396Z,99653.39
2018-12-22T04:23:08.895Z,99645.61
2018-12-22T04:25:36.428Z,99635.99
2018-12-22T04:28:03.925Z,99636.22
2018-12-22T04:30:31.460Z,99635.67
2018-12-22T04:32:58.962Z,99633.88
2018-12-22T04:35:26.483Z,99638.33
2018-12-22T04:37:53.983Z,99640.27
2018-12-22T04:40:21.809Z,99651.33
2018-12-22T04:42:49.421Z,99657.47
2018-12-22T04:45:16.919Z,99661.89
2018-12-22T04:47:44.445Z,99666.88
2018-12-22T04:50:11.970Z,99659.88
2018-12-22T04:52:39.732Z,99656.28
2018-12-22T04:55:07.232Z,99647.88
2018-12-22T04:57:34.727Z,99655.50
2018-12-22T05:00:02.263Z,99657.20
2018-12-22T05:02:29.784Z,99657.84
2018-12-22T05:04:57.495Z,99665.99
2018-12-22T05:07:25.088Z,99660.66
2018-12-22T05:09:52.858Z,99651.09
2018-12-22T05:12:20.383Z,99645.70
2018-12-22T05:14:47.884Z,99647.75
2018-12-22T05:17:15.444Z,99649.14
2018-12-22T05:19:42.952Z,99654.86
2018-12-22T05:22:10.450Z,99646.81
2018-12-22T05:24:38.580Z,99647.88
2018-12-22T05:27:06.076Z,99647.66
2018-12-22T05:29:33.916Z,99654.22
2018-12-22T05:32:01.415Z,99660.88
2018-12-22T05:34:28.908Z,99655.55
2018-12-22T05:36:56.437Z,99654.77
2018-12-22T05:39:23.945Z,99653.83
2018-12-22T05:41:51.615Z,99647.09
2018-12-22T05:44:19.111Z,99665.70
2018-12-22T05:46:46.612Z,99670.59
2018-12-22T05:49:14.164Z,99668.78
2018-12-22T05:51:41.671Z,99670.61
2018-12-22T05:54:09.214Z,99683.01
2018-12-22T05:56:36.728Z,99682.13
2018-12-22T05:59:04.719Z,99688.59
2018-12-22T06:01:32.247Z,99694.67
2018-12-22T06:03:59.744Z,99704.41
2018-12-22T06:06:27.288Z,99697.73
2018-12-22T06:08:54.787Z,99718.98
2018-12-22T06:11:22.295Z,99713.59
2018-12-22T06:13:49.815Z,99715.60
2018-12-22T06:16:17.331Z,99716.47
2018-12-22T06:18:44.867Z,99716.25
2018-12-22T06:21:12.364Z,99721.07
2018-12-22T06:23:39.880Z,99732.12
2018-12-22T06:26:07.411Z,99722.28
2018-12-22T06:28:34.908Z,99731.47
2018-12-22T06:31:02.709Z,99733.19
2018-12-22T06:33:30.235Z,99731.60
2018-12-22T06:35:57.731Z,99736.86
2018-12-22T06:38:25.267Z,99750.83
2018-12-22T06:40:52.781Z,99754.50
2018-12-22T06:43:20.329Z,99750.77
2018-12-22T06:45:47.824Z,99757.09
2018-12-22T06:48:15.419Z,99765.09
2018-12-22T06:50:42.951Z,99763.55
2018-12-22T06:53:10.464Z,99781.67
2018-12-22T06:55:38.117Z,99777.41
2018-12-22T06:58:05.616Z,99778.01
2018-12-22T07:00:33.207Z,99784.46
2018-12-22T07:03:00.739Z,99783.92
2018-12-22T07:05:28.347Z,99776.54
2018-12-22T07:07:55.972Z,99776.61
2018-12-22T07:10:25.478Z,99781.74
2018-12-22T07:12:53.017Z,99788.05
2018-12-22T07:15:20.563Z,99792.84
2018-12-22T07:17:48.059Z,99799.83
2018-12-22T07:20:15.616Z,99788.85
2018-12-22T07:22:43.112Z,99808.02
2018-12-22T07:25:10.636Z,99819.14
2018-12-22T07:27:38.184Z,99815.48
2018-12-22T07:30:08.488Z,99812.34
2018-12-22T07:32:36.023Z,99821.73
2018-12-22T07:35:05.023Z,99832.11
2018-12-22T07:37:32.524Z,99839.70
2018-12-22T07:40:00.060Z,99845.95
2018-12-22T07:42:27.783Z,99853.05
2018-12-22T07:44:55.328Z,99859.20
2018-12-22T07:47:22.850Z,99863.06
2018-12-22T07:49:50.352Z,99864.67
2018-12-22T07:52:17.879Z,99871.93
2018-12-22T07:54:45.379Z,99871.33
2018-12-22T07:57:12.916Z,99883.30
2018-12-22T07:59:40.411Z,99882.78
2018-12-22T08:02:07.911Z,99884.70
2018-12-22T08:04:35.439Z,99891.70
2018-12-22T08:07:02.942Z,99908.16
2018-12-22T08:09:30.616Z,99911.79
2018-12-22T08:11:58.115Z,99915.88
2018-12-22T08:14:25.608Z,99915.73
2018-12-22T08:16:53.137Z,99917.74
2018-12-22T08:19:20.633Z,99929.31
2018-12-22T08:21:48.412Z,99924.17
2018-12-22T08:24:15.913Z,99933.09
2018-12-22T08:26:43.412Z,99932.23
2018-12-22T08:29:10.942Z,99940.56
2018-12-22T08:31:38.440Z,99945.63
2018-12-22T08:34:06.515Z,99950.69
2018-12-22T08:36:34.011Z,99956.41
2018-12-22T08:39:01.511Z,99961.08
2018-12-22T08:41:29.055Z,99962.78
2018-12-22T08:43:56.640Z,99973.52
2018-12-22T08:46:24.163Z,99977.91
2018-12-22T08:48:51.679Z,99989.50
2018-12-22T08:51:19.203Z,99993.16
2018-12-22T08:53:46.751Z,99994.16
2018-12-22T08:56:14.251Z,100006.34
2018-12-22T08:58:41.834Z,100006.06
2018-12-22T09:01:09.404Z,100013.66
2018-12-22T09:03:36.939Z,100029.47
2018-12-22T09:06:04.439Z,100029.88
2018-12-22T09:08:31.972Z,100036.94
2018-12-22T09:10:59.479Z,100034.17
2018-12-22T09:13:27.015Z,100035.51
2018-12-22T09:15:54.532Z,100041.03
2018-12-22T09:18:22.027Z,100040.78
2018-12-22T09:20:49.567Z,100043.52
2018-12-22T09:23:17.065Z,100046.83
2018-12-22T09:25:44.613Z,100052.95
2018-12-22T09:28:12.117Z,100062.96
2018-12-22T09:30:39.620Z,100062.65
2018-12-22T09:33:07.152Z,100071.58
2018-12-22T09:35:34.666Z,100067.64
2018-12-22T09:38:02.348Z,100076.04
2018-12-22T09:40:29.853Z,100076.44
2018-12-22T09:42:57.355Z,100078.70
2018-12-22T09:45:24.903Z,100091.34
2018-12-22T09:47:52.403Z,100089.20
2018-12-22T09:50:19.984Z,100089.53
2018-12-22T09:52:47.491Z,100088.15
2018-12-22T09:55:14.991Z,100097.22
2018-12-22T09:57:42.530Z,100103.02
2018-12-22T10:00:11.443Z,100095.02
2018-12-22T10:02:39.279Z,100101.05
2018-12-22T10:05:08.378Z,100103.12
2018-12-22T10:07:35.895Z,100107.99
2018-12-22T10:10:06.225Z,100108.14
2018-12-22T10:12:33.728Z,100107.55
2018-12-22T10:15:01.295Z,100113.89
2018-12-22T10:17:28.795Z,100111.63
2018-12-22T10:19:56.356Z,100116.27
2018-12-22T10:22:23.891Z,100127.13
2018-12-22T10:24:51.390Z,100121.33
2018-12-22T10:27:18.957Z,100125.59
2018-12-22T10:29:46.484Z,100133.53
2018-12-22T10:32:14.191Z,100151.91
2018-12-22T10:34:41.700Z,100136.09
2018-12-22T10:37:09.194Z,100137.30
2018-12-22T10:39:36.720Z,100141.63
2018-12-22T10:42:04.235Z,100137.20
2018-12-22T10:44:31.774Z,100121.20
2018-12-22T10:46:59.295Z,100137.54
2018-12-22T10:49:26.907Z,100148.63
2018-12-22T10:51:54.412Z,100143.49
2018-12-22T10:54:21.931Z,100136.02
2018-12-22T10:56:49.459Z,100144.59
2018-12-22T10:59:16.959Z,100146.05
2018-12-22T11:01:44.515Z,100140.02
2018-12-22T11:04:12.040Z,100148.59
2018-12-22T11:06:39.584Z,100155.38
2018-12-22T11:09:07.211Z,100154.11
2018-12-22T11:11:34.715Z,100157.00
2018-12-22T11:14:02.280Z,100151.38
2018-12-22T11:16:29.784Z,100157.84
2018-12-22T11:18:57.320Z,100162.58
2018-12-22T11:21:25.539Z,100164.51
2018-12-22T11:23:53.120Z,100160.84
2018-12-22T11:26:20.628Z,100174.80
2018-12-22T11:28:48.143Z,100172.79
2018-12-22T11:31:15.719Z,100172.20
2018-12-22T11:33:43.226Z,100190.37
2018-12-22T11:36:10.800Z,100193.66
2018-12-22T11:38:38.391Z,100196.25
2018-12-22T11:41:05.895Z,100187.92
2018-12-22T11:43:33.475Z,100192.50
2018-12-22T11:46:00.983Z,100204.44
2018-12-22T11:48:28.859Z,100197.71
2018-12-22T11:50:56.371Z,100199.39
2018-12-22T11:53:23.888Z,100203.30
2018-12-22T11:55:51.420Z,100209.03
2018-12-22T11:58:18.923Z,100204.10
2018-12-22T12:00:46.688Z,100202.45
2018-12-22T12:03:14.198Z,100201.72
2018-12-22T12:05:41.701Z,100196.59
2018-12-22T12:08:09.254Z,100207.79
2018-12-22T12:10:36.783Z,100210.79
2018-12-22T12:13:04.376Z,100218.05
2018-12-22T12:15:35.791Z,100217.71
2018-12-22T12:18:17.515Z,100225.47
2018-12-22T12:20:45.027Z,100233.44
2018-12-22T12:23:12.600Z,100234.45
2018-12-22T12:25:40.319Z,100244.13
2018-12-22T12:28:07.855Z,100247.58
2018-12-22T12:30:35.488Z,100242.45
2018-12-22T12:33:03.026Z,100250.59
2018-12-22T12:35:30.699Z,100237.44
2018-12-22T12:37:58.229Z,100237.47
2018-12-22T12:40:25.773Z,100233.53
2018-12-22T12:42:53.300Z,100242.98
2018-12-22T12:45:20.844Z,100247.05
2018-12-22T12:47:48.624Z,100252.08
2018-12-22T12:50:19.856Z,100255.39
2018-12-22T12:52:47.360Z,100253.06
2018-12-22T12:55:15.788Z,100259.92
2018-12-22T12:57:43.291Z,100249.48
2018-12-22T13:00:19.091Z,100261.37
2018-12-22T13:02:46.598Z,100260.91
2018-12-22T13:05:14.099Z,100267.31
2018-12-22T13:07:41.653Z,100252.78
2018-12-22T13:10:11.891Z,100270.09
2018-12-22T13:15:48.453Z,100275.63
2018-12-22T13:18:16.484Z,100285.92
2018-12-22T13:20:43.983Z,100289.39
2018-12-22T13:23:11.480Z,100296.23
2018-12-22T13:25:39.240Z,100305.15
2018-12-22T13:28:06.738Z,100312.03
2018-12-22T13:30:34.263Z,100308.17
2018-12-22T13:33:01.759Z,100308.33
2018-12-22T13:35:29.286Z,100317.90
2018-12-22T13:37:56.788Z,100318.93
2018-12-22T13:40:24.387Z,100325.22
2018-12-22T13:42:51.888Z,100316.09
2018-12-22T13:45:19.389Z,100317.78
2018-12-22T13:47:47.013Z,100319.95
2018-12-22T13:50:14.586Z,100323.08
2018-12-22T13:52:42.319Z,100317.09
2018-12-22T13:55:10.326Z,100322.53
2018-12-22T13:57:43.647Z,100326.95
2018-12-22T14:00:19.320Z,100323.33
2018-12-22T14:02:46.848Z,100328.11
2018-12-22T14:05:24.795Z,100321.28
2018-12-22T14:07:52.346Z,100331.41
2018-12-22T14:10:20.648Z,100337.34
2018-12-22T14:12:48.163Z,100335.33
2018-12-22T14:15:21.795Z,100331.48
2018-12-22T14:18:01.900Z,100345.13
2018-12-22T14:20:30.728Z,100347.38
2018-12-22T14:22:58.347Z,100343.54
2018-12-22T14:25:26.043Z,100342.62
2018-12-22T14:27:53.549Z,100343.08
2018-12-22T14:30:21.061Z,100334.69
2018-12-22T14:32:48.587Z,100347.08
2018-12-22T14:35:19.988Z,100359.15
2018-12-22T14:37:47.538Z,100353.78
2018-12-22T14:40:15.044Z,100356.03
2018-12-22T14:42:42.571Z,100358.84
2018-12-22T14:45:12.991Z,100363.96
2018-12-22T14:47:41.147Z,100371.12
2018-12-22T14:50:11.279Z,100373.36
2018-12-22T14:52:38.797Z,100367.02
2018-12-22T14:55:10.455Z,100371.92
2018-12-22T14:57:44.901Z,100372.13
2018-12-22T15:00:15.591Z,100376.42
2018-12-22T15:02:43.215Z,100372.67
2018-12-22T15:05:10.716Z,100379.13
2018-12-22T15:07:38.251Z,100380.31
2018-12-22T15:10:09.440Z,100386.38
2018-12-22T15:12:37.066Z,100385.71
2018-12-22T15:15:08.927Z,100388.81
2018-12-22T15:17:36.755Z,100398.36
2018-12-22T15:20:08.287Z,100406.00
2018-12-22T15:22:35.816Z,100406.37
2018-12-22T15:25:03.743Z,100415.27
2018-12-22T15:27:31.243Z,100415.82
2018-12-22T15:29:58.772Z,100420.99
2018-12-22T15:32:26.274Z,100439.33
2018-12-22T15:34:53.799Z,100445.46
2018-12-22T15:37:21.301Z,100439.23
2018-12-22T15:39:49.234Z,100433.91
2018-12-22T15:42:16.741Z,100435.61
2018-12-22T15:44:44.270Z,100442.22
2018-12-22T15:47:11.827Z,100438.88
2018-12-22T15:49:39.323Z,100449.36
2018-12-22T15:52:06.987Z,100449.26
2018-12-22T15:54:34.488Z,100455.95
2018-12-22T15:57:02.003Z,100449.63
2018-12-22T15:59:29.652Z,100455.91
2018-12-22T16:01:57.152Z,100466.30
2018-12-22T16:04:24.691Z,100463.52
2018-12-22T16:06:52.276Z,100463.05
2018-12-22T16:09:19.831Z,100467.91
2018-12-22T16:11:47.364Z,100477.01
2018-12-22T16:14:14.891Z,100482.66
2018-12-22T16:16:42.455Z,100483.66
2018-12-22T16:19:09.991Z,100477.13
2018-12-22T16:21:37.491Z,100484.56
2018-12-22T16:24:05.048Z,100475.89
2018-12-22T16:26:33.270Z,100488.13
2018-12-22T16:29:01.132Z,100483.58
2018-12-22T16:31:28.640Z,100480.46
2018-12-22T16:33:56.164Z,100481.83
2018-12-22T16:36:23.737Z,100479.95
2018-12-22T16:38:51.238Z,100482.16
2018-12-22T16:41:18.849Z,100488.67
2018-12-22T16:43:46.430Z,100487.23
2018-12-22T16:46:13.939Z,100485.77
2018-12-22T16:48:41.663Z,100489.79
2018-12-22T16:51:09.164Z,100492.03
2018-12-22T16:53:36.695Z,100494.30
2018-12-22T16:56:04.196Z,100498.59
2018-12-22T16:58:31.694Z,100499.27
2018-12-22T17:01:18.804Z,100502.31
2018-12-22T17:03:46.312Z,100507.66
2018-12-22T17:06:14.447Z,100500.48
2018-12-22T17:08:41.943Z,100500.98
2018-12-22T17:11:09.471Z,100504.84
2018-12-22T17:13:36.992Z,100501.32
2018-12-22T17:16:04.589Z,100510.77
2018-12-22T17:18:32.259Z,100514.33
2018-12-22T17:21:04.484Z,100522.22
2018-12-22T17:23:42.728Z,100521.99
2018-12-22T17:26:10.601Z,100524.87
2018-12-22T17:28:38.118Z,100522.72
2018-12-22T17:31:05.674Z,100528.48
2018-12-22T17:33:33.167Z,100529.28
2018-12-22T17:36:00.700Z,100531.33
2018-12-22T17:38:28.307Z,100532.69
2018-12-22T17:40:56.063Z,100534.59
2018-12-22T17:43:23.599Z,100539.06
2018-12-22T17:45:51.092Z,100545.96
2018-12-22T17:48:18.695Z,100549.37
2018-12-22T17:50:46.207Z,100547.98
2018-12-22T17:53:13.751Z,100551.58
2018-12-22T17:55:41.263Z,100549.18
2018-12-22T17:58:08.859Z,100555.40
2018-12-22T18:00:36.437Z,100553.34
2018-12-22T18:03:06.159Z,100566.02
2018-12-22T18:05:33.687Z,100573.63
2018-12-22T18:08:01.197Z,100578.94
2018-12-22T18:10:28.936Z,100581.17
2018-12-22T18:12:56.477Z,100581.80
2018-12-22T18:15:25.387Z,100581.62
2018-12-22T18:17:53.025Z,100583.02
2018-12-22T18:20:20.525Z,100584.38
2018-12-22T18:22:48.199Z,100587.39
2018-12-22T18:25:19.000Z,100590.74
2018-12-22T18:27:48.648Z,100593.40
2018-12-22T18:30:16.191Z,100593.73
2018-12-22T18:32:44.891Z,100600.48
2018-12-22T18:35:12.527Z,100603.21
2018-12-22T18:37:40.028Z,100607.05
2018-12-22T18:40:23.667Z,100615.02
2018-12-22T18:42:51.339Z,100618.76
2018-12-22T18:45:18.879Z,100617.57
2018-12-22T18:47:46.379Z,100611.35
2018-12-22T18:50:21.053Z,100612.67
2018-12-22T18:52:48.587Z,100620.54
2018-12-22T18:55:16.105Z,100619.25
2018-12-22T18:57:46.006Z,100624.59
2018-12-22T19:00:19.068Z,100620.22
2018-12-22T19:02:46.635Z,100624.80
2018-12-22T19:05:14.937Z,100623.72
2018-12-22T19:07:42.435Z,100621.59
2018-12-22T19:10:30.519Z,100623.92
2018-12-22T19:12:58.034Z,100636.57
2018-12-22T19:15:25.716Z,100636.16
2018-12-22T19:17:53.815Z,100634.97
2018-12-22T19:20:28.048Z,100628.12
2018-12-22T19:22:55.547Z,100625.64
2018-12-22T19:25:23.460Z,100628.61
2018-12-22T19:27:51.015Z,100619.91
2018-12-22T19:30:18.514Z,100631.86
2018-12-22T19:32:46.051Z,100633.02
2018-12-22T19:35:13.605Z,100634.05
2018-12-22T19:37:41.199Z,100637.30
2018-12-22T19:40:08.888Z,100642.58
2018-12-22T19:42:36.455Z,100648.80
2018-12-22T19:45:05.772Z,100656.00
2018-12-22T19:47:33.288Z,100652.44
2018-12-22T19:50:00.832Z,100651.11
2018-12-22T19:52:28.337Z,100656.45
2018-12-22T19:54:55.860Z,100656.28
2018-12-22T19:57:23.983Z,100655.69
2018-12-22T19:59:51.507Z,100662.70
2018-12-22T20:02:19.006Z,100673.91
2018-12-22T20:04:46.620Z,100674.33
2018-12-22T20:07:14.115Z,100673.94
2018-12-22T20:09:41.619Z,100676.98
2018-12-22T20:12:09.148Z,100668.56
2018-12-22T20:14:36.739Z,100665.95
2018-12-22T20:17:04.291Z,100666.33
2018-12-22T20:19:31.788Z,100653.90
2018-12-22T20:21:59.283Z,100662.38
2018-12-22T20:24:26.822Z,100664.16
2018-12-22T20:26:54.328Z,100666.33
2018-12-22T20:29:21.851Z,100672.13
2018-12-22T20:31:49.344Z,100676.98
2018-12-22T20:34:16.855Z,100675.23
2018-12-22T20:36:44.381Z,100673.94
2018-12-22T20:39:11.879Z,100674.36
2018-12-22T20:41:39.408Z,100678.70
2018-12-22T20:44:06.904Z,100688.09
2018-12-22T20:46:34.504Z,100691.81
2018-12-22T20:49:02.011Z,100690.55
2018-12-22T20:51:29.535Z,100704.27
2018-12-22T20:53:57.060Z,100705.27
2018-12-22T20:56:24.572Z,100697.30
2018-12-22T20:58:52.197Z,100686.20
2018-12-22T21:01:19.695Z,100680.14
2018-12-22T21:03:47.528Z,100684.03
2018-12-22T21:06:16.622Z,100692.98
2018-12-22T21:08:44.120Z,100696.39
2018-12-22T21:11:11.743Z,100700.62
2018-12-22T21:13:39.246Z,100706.59
2018-12-22T21:16:06.980Z,100707.46
2018-12-22T21:18:34.477Z,100715.45
2018-12-22T21:21:01.975Z,100720.03
2018-12-22T21:23:29.515Z,100717.08
2018-12-22T21:25:57.035Z,100725.98
2018-12-22T21:28:24.669Z,100727.84
2018-12-22T21:30:52.179Z,100731.77
2018-12-22T21:33:19.691Z,100732.25
2018-12-22T21:35:53.280Z,100732.64
2018-12-22T21:38:16.739Z,100721.58
2018-12-22T21:40:44.419Z,100729.36
2018-12-22T21:43:11.916Z,100734.42
2018-12-22T21:45:39.423Z,100746.06
2018-12-22T21:48:06.952Z,100745.06
2018-12-22T21:50:34.454Z,100747.09
2018-12-22T21:53:01.988Z,100748.98
2018-12-22T21:55:29.488Z,100757.62
2018-12-22T21:57:57.013Z,100758.08
2018-12-22T22:00:24.547Z,100759.91
2018-12-22T22:02:52.043Z,100766.22
2018-12-22T22:05:19.597Z,100766.83
2018-12-22T22:07:47.119Z,100768.13
2018-12-22T22:10:14.618Z,100763.70
2018-12-22T22:12:42.141Z,100769.41
2018-12-22T22:15:09.636Z,100770.08
2018-12-22T22:17:37.309Z,100769.02
2018-12-22T22:20:05.618Z,100767.03
2018-12-22T22:22:33.130Z,100771.63
2018-12-22T22:25:00.656Z,100780.06
2018-12-22T22:27:28.185Z,100779.27
2018-12-22T22:29:55.740Z,100781.48
2018-12-22T22:32:23.232Z,100788.36
2018-12-22T22:34:50.739Z,100789.27
2018-12-22T22:37:18.268Z,100798.61
2018-12-22T22:39:45.776Z,100812.18
2018-12-22T22:42:13.307Z,100815.39
2018-12-22T22:44:40.851Z,100819.92
2018-12-22T22:47:08.447Z,100824.80
2018-12-22T22:49:35.974Z,100834.56
2018-12-22T22:52:03.474Z,100839.50
2018-12-22T22:54:31.015Z,100840.41
2018-12-22T22:56:59.441Z,100845.72
2018-12-22T22:59:27.151Z,100848.39
2018-12-22T23:01:54.683Z,100855.47
2018-12-22T23:04:22.588Z,100851.47
2018-12-22T23:06:50.435Z,100846.64
2018-12-22T23:09:17.933Z,100849.11
2018-12-22T23:11:45.432Z,100863.20
2018-12-22T23:14:12.969Z,100858.36
2018-12-22T23:16:40.670Z,100857.42
2018-12-22T23:19:08.319Z,100866.19
2018-12-22T23:21:35.904Z,100857.44
2018-12-22T23:24:03.659Z,100863.17
2018-12-22T23:26:31.157Z,100862.31
2018-12-22T23:28:58.656Z,100868.81
2018-12-22T23:31:26.209Z,100880.69
2018-12-22T23:33:53.708Z,100887.80
2018-12-22T23:36:21.351Z,100881.56
2018-12-22T23:38:48.851Z,100876.69
2018-12-22T23:41:16.352Z,100873.67
2018-12-22T23:43:43.877Z,100861.71
2018-12-22T23:46:11.392Z,100857.78
2018-12-22T23:48:38.933Z,100855.95
2018-12-22T23:51:06.542Z,100852.85
2018-12-22T23:53:34.177Z,100853.71
2018-12-22T23:56:01.699Z,100853.08
2018-12-22T23:58:29.203Z,100859.52
